createdAt,value
2023-02-04T00:00:21.552Z,1.30
2023-02-04T00:02:48.670Z,1.97
2023-02-04T00:05:18.952Z,1.90
2023-02-04T00:07:45.880Z,2.10
2023-02-04T00:10:13.222Z,1.67
2023-02-04T00:12:40.152Z,2.43
2023-02-04T00:15:08.176Z,2.07
2023-02-04T00:17:35.680Z,2.23
2023-02-04T00:20:02.685Z,2.00
2023-02-04T00:22:29.594Z,2.20
2023-02-04T00:24:56.896Z,2.10
2023-02-04T00:27:23.919Z,2.00
2023-02-04T00:29:51.059Z,2.30
2023-02-04T00:32:18.178Z,2.30
2023-02-04T00:34:45.246Z,2.00
2023-02-04T00:37:12.163Z,2.30
2023-02-04T00:39:39.098Z,2.20
2023-02-04T00:42:06.784Z,2.33
2023-02-04T00:44:33.661Z,2.90
2023-02-04T00:47:00.611Z,1.80
2023-02-04T00:49:27.531Z,3.30
2023-02-04T00:51:54.559Z,2.83
2023-02-04T00:54:21.518Z,2.47
2023-02-04T00:56:48.451Z,2.27
2023-02-04T00:59:15.379Z,1.97
2023-02-04T01:01:42.567Z,1.93
2023-02-04T01:04:09.570Z,2.37
2023-02-04T01:06:37.124Z,2.17
2023-02-04T01:09:05.352Z,1.73
2023-02-04T01:11:32.807Z,2.33
2023-02-04T01:14:00.652Z,2.10
2023-02-04T01:16:27.672Z,1.40
2023-02-04T01:18:56.062Z,1.73
2023-02-04T01:21:26.709Z,2.23
2023-02-04T01:23:53.631Z,2.27
2023-02-04T01:26:21.582Z,2.27
2023-02-04T01:28:48.614Z,1.77
2023-02-04T01:31:16.339Z,2.00
2023-02-04T01:33:43.516Z,1.93
2023-02-04T01:36:11.117Z,2.30
2023-02-04T01:38:38.077Z,1.90
2023-02-04T01:41:06.603Z,2.30
2023-02-04T01:43:34.342Z,2.73
2023-02-04T01:46:02.840Z,3.50
2023-02-04T01:48:30.024Z,2.30
2023-02-04T01:51:09.196Z,2.30
2023-02-04T01:53:37.448Z,1.53
2023-02-04T01:56:21.108Z,1.77
2023-02-04T01:58:48.989Z,1.50
2023-02-04T02:01:38.657Z,1.47
2023-02-04T02:04:06.056Z,1.60
2023-02-04T02:06:33.178Z,2.10
2023-02-04T02:09:00.501Z,2.30
2023-02-04T02:11:28.254Z,2.03
2023-02-04T02:13:55.394Z,2.53
2023-02-04T02:16:23.106Z,2.07
2023-02-04T02:18:53.829Z,2.53
2023-02-04T02:21:32.686Z,2.27
2023-02-04T02:24:01.375Z,1.80
2023-02-04T02:26:28.414Z,1.80
2023-02-04T02:28:55.695Z,1.90
2023-02-04T02:31:23.968Z,2.10
2023-02-04T02:33:51.093Z,2.13
2023-02-04T02:36:18.128Z,1.70
2023-02-04T02:38:45.175Z,2.20
2023-02-04T02:41:12.227Z,1.97
2023-02-04T02:43:40.170Z,2.87
2023-02-04T02:46:07.631Z,2.27
2023-02-04T02:48:34.586Z,2.30
2023-02-04T02:51:01.814Z,2.23
2023-02-04T02:53:28.845Z,2.27
2023-02-04T02:55:55.836Z,2.53
2023-02-04T02:58:33.833Z,1.73
2023-02-04T03:01:07.726Z,2.43
2023-02-04T03:03:48.819Z,3.33
2023-02-04T03:06:22.421Z,3.50
2023-02-04T03:08:52.822Z,2.40
2023-02-04T03:11:19.760Z,2.50
2023-02-04T03:13:47.073Z,1.40
2023-02-04T03:16:14.167Z,2.47
2023-02-04T03:18:41.294Z,3.10
2023-02-04T03:21:08.663Z,2.00
2023-02-04T03:23:37.133Z,2.00
2023-02-04T03:26:06.230Z,2.23
2023-02-04T03:28:33.816Z,1.73
2023-02-04T03:31:00.831Z,1.83
2023-02-04T03:33:31.615Z,1.97
2023-02-04T03:35:59.655Z,1.80
2023-02-04T03:38:27.438Z,2.20
2023-02-04T03:40:54.338Z,1.27
2023-02-04T03:43:21.382Z,1.33
2023-02-04T03:45:48.338Z,1.70
2023-02-04T03:48:15.326Z,2.53
2023-02-04T03:50:42.560Z,1.37
2023-02-04T03:53:09.912Z,2.07
2023-02-04T03:55:36.963Z,1.63
2023-02-04T03:58:05.654Z,2.03
2023-02-04T04:00:32.920Z,1.80
2023-02-04T04:03:00.468Z,2.20
2023-02-04T04:05:29.036Z,1.43
2023-02-04T04:07:56.425Z,2.07
2023-02-04T04:10:23.867Z,2.57
2023-02-04T04:12:51.032Z,2.00
2023-02-04T04:15:18.423Z,2.00
2023-02-04T04:17:45.308Z,2.10
2023-02-04T04:20:13.419Z,2.33
2023-02-04T04:22:40.512Z,1.77
2023-02-04T04:25:08.795Z,2.30
2023-02-04T04:27:35.701Z,2.33
2023-02-04T04:30:03.957Z,2.07
2023-02-04T04:32:30.925Z,1.80
2023-02-04T04:34:57.832Z,1.40
2023-02-04T04:37:24.801Z,2.27
2023-02-04T04:39:51.691Z,1.97
2023-02-04T04:42:18.616Z,1.40
2023-02-04T04:44:45.523Z,2.40
2023-02-04T04:47:12.480Z,2.03
2023-02-04T04:49:39.532Z,2.13
2023-02-04T04:52:06.515Z,1.50
2023-02-04T04:54:33.482Z,2.60
2023-02-04T04:57:00.420Z,1.40
2023-02-04T04:59:27.388Z,1.23
2023-02-04T05:01:54.338Z,1.70
2023-02-04T05:04:21.449Z,1.63
2023-02-04T05:06:48.787Z,2.03
2023-02-04T05:09:17.620Z,1.80
2023-02-04T05:11:44.560Z,1.67
2023-02-04T05:14:11.538Z,1.70
2023-02-04T05:16:38.500Z,1.73
2023-02-04T05:19:05.747Z,1.40
2023-02-04T05:21:32.591Z,2.10
2023-02-04T05:23:59.453Z,1.63
2023-02-04T05:26:30.545Z,1.60
2023-02-04T05:29:01.466Z,1.90
2023-02-04T05:31:28.795Z,2.50
2023-02-04T05:33:55.920Z,2.40
2023-02-04T05:36:23.040Z,2.07
2023-02-04T05:38:49.939Z,1.30
2023-02-04T05:41:16.801Z,2.50
2023-02-04T05:43:43.891Z,1.83
2023-02-04T05:46:10.999Z,2.40
2023-02-04T05:48:40.171Z,2.90
2023-02-04T05:51:07.112Z,2.43
2023-02-04T05:53:34.030Z,3.20
2023-02-04T05:56:00.986Z,1.83
2023-02-04T05:58:33.444Z,2.47
2023-02-04T06:01:04.713Z,2.37
2023-02-04T06:03:32.880Z,2.17
2023-02-04T06:05:59.872Z,1.50
2023-02-04T06:08:26.841Z,2.00
2023-02-04T06:10:53.785Z,2.40
2023-02-04T06:13:20.680Z,1.80
2023-02-04T06:15:47.602Z,1.73
2023-02-04T06:18:14.710Z,2.23
2023-02-04T06:20:41.686Z,2.00
2023-02-04T06:23:08.621Z,2.27
2023-02-04T06:25:36.965Z,2.07
2023-02-04T06:28:04.428Z,2.30
2023-02-04T06:30:31.996Z,2.60
2023-02-04T06:32:59.390Z,3.87
2023-02-04T06:35:26.453Z,2.17
2023-02-04T06:37:53.412Z,1.90
2023-02-04T06:40:20.417Z,2.03
2023-02-04T06:42:47.373Z,2.13
2023-02-04T06:45:14.381Z,2.63
2023-02-04T06:47:41.411Z,2.47
2023-02-04T06:50:09.301Z,2.30
2023-02-04T06:52:37.324Z,2.67
2023-02-04T06:55:04.571Z,1.97
2023-02-04T06:57:31.503Z,2.60
2023-02-04T06:59:58.396Z,2.23
2023-02-04T07:02:25.345Z,1.90
2023-02-04T07:04:52.331Z,2.67
2023-02-04T07:07:19.311Z,3.10
2023-02-04T07:09:46.312Z,2.10
2023-02-04T07:12:15.267Z,1.37
2023-02-04T07:14:43.204Z,1.30
2023-02-04T07:17:10.435Z,1.23
2023-02-04T07:19:37.477Z,1.60
2023-02-04T07:22:04.971Z,1.57
2023-02-04T07:24:32.072Z,1.23
2023-02-04T07:26:59.189Z,1.00
2023-02-04T07:29:26.732Z,1.90
2023-02-04T07:31:54.515Z,1.60
2023-02-04T07:34:22.092Z,1.53
2023-02-04T07:36:49.161Z,1.30
2023-02-04T07:39:16.718Z,1.50
2023-02-04T07:41:43.949Z,1.50
2023-02-04T07:44:10.900Z,1.20
2023-02-04T07:46:38.527Z,1.50
2023-02-04T07:49:05.387Z,1.80
2023-02-04T07:51:32.341Z,1.20
2023-02-04T07:53:59.286Z,2.00
2023-02-04T07:56:26.216Z,3.50
2023-02-04T07:58:53.170Z,2.00
2023-02-04T08:01:20.099Z,2.70
2023-02-04T08:03:47.047Z,2.50
2023-02-04T08:06:13.936Z,2.00
2023-02-04T08:08:40.922Z,1.87
2023-02-04T08:11:08.122Z,2.37
2023-02-04T08:13:35.040Z,2.40
2023-02-04T08:16:02.086Z,2.37
2023-02-04T08:18:29.106Z,2.00
2023-02-04T08:20:56.071Z,2.27
2023-02-04T08:23:23.344Z,1.97
2023-02-04T08:25:50.277Z,1.47
2023-02-04T08:28:17.248Z,1.67
2023-02-04T08:30:44.227Z,1.10
2023-02-04T08:33:11.155Z,1.30
2023-02-04T08:35:38.120Z,1.70
2023-02-04T08:38:05.037Z,1.30
2023-02-04T08:40:32.476Z,1.60
2023-02-04T08:42:59.576Z,1.40
2023-02-04T08:45:27.110Z,1.30
2023-02-04T08:47:53.971Z,1.50
2023-02-04T08:50:21.196Z,1.33
2023-02-04T08:52:49.449Z,1.20
2023-02-04T08:55:16.416Z,1.97
2023-02-04T08:57:43.319Z,1.40
2023-02-04T09:00:14.910Z,1.60
2023-02-04T09:02:41.869Z,1.83
2023-02-04T09:05:08.864Z,1.87
2023-02-04T09:07:35.696Z,1.70
2023-02-04T09:10:02.661Z,1.70
2023-02-04T09:12:29.617Z,1.20
2023-02-04T09:14:56.595Z,1.60
2023-02-04T09:17:24.357Z,1.40
2023-02-04T09:19:51.369Z,1.77
2023-02-04T09:22:18.276Z,1.17
2023-02-04T09:24:45.163Z,1.60
2023-02-04T09:27:12.092Z,1.83
2023-02-04T09:29:39.049Z,1.40
2023-02-04T09:32:07.248Z,1.87
2023-02-04T09:34:34.183Z,1.83
2023-02-04T09:37:01.152Z,1.60
2023-02-04T09:39:29.291Z,1.90
2023-02-04T09:41:56.306Z,1.70
2023-02-04T09:44:26.894Z,1.37
2023-02-04T09:46:57.850Z,1.50
2023-02-04T09:49:27.130Z,1.67
2023-02-04T09:51:55.520Z,1.60
2023-02-04T09:54:24.517Z,1.93
2023-02-04T09:56:53.230Z,1.80
2023-02-04T09:59:23.104Z,1.73
2023-02-04T10:02:01.510Z,2.10
2023-02-04T10:04:29.141Z,2.30
2023-02-04T10:06:59.265Z,2.20
2023-02-04T10:09:26.526Z,1.90
2023-02-04T10:11:53.637Z,1.80
2023-02-04T10:14:23.611Z,1.50
2023-02-04T10:17:00.783Z,2.30
2023-02-04T10:19:30.214Z,2.60
2023-02-04T10:21:58.219Z,2.27
2023-02-04T10:24:28.273Z,2.00
2023-02-04T10:26:55.279Z,2.20
2023-02-04T10:29:25.974Z,2.20
2023-02-04T10:31:53.569Z,2.33
2023-02-04T10:34:33.119Z,2.70
2023-02-04T10:37:01.436Z,2.30
2023-02-04T10:39:30.590Z,2.57
2023-02-04T10:42:00.490Z,2.37
2023-02-04T10:44:31.830Z,2.23
2023-02-04T10:47:01.371Z,2.40
2023-02-04T10:49:28.412Z,3.03
2023-02-04T10:51:57.109Z,2.10
2023-02-04T10:54:38.248Z,2.53
2023-02-04T10:57:25.026Z,1.93
2023-02-04T10:59:56.659Z,2.13
2023-02-04T11:02:46.271Z,2.37
2023-02-04T11:05:23.668Z,2.27
2023-02-04T11:07:51.660Z,1.87
2023-02-04T11:10:24.788Z,2.00
2023-02-04T11:12:54.751Z,2.10
2023-02-04T11:16:19.297Z,1.77
2023-02-04T11:19:06.955Z,1.73
2023-02-04T11:21:33.813Z,3.00
2023-02-04T11:24:12.605Z,2.03
2023-02-04T11:26:54.808Z,1.87
2023-02-04T11:29:39.017Z,1.83
2023-02-04T11:32:36.213Z,2.67
2023-02-04T11:35:22.111Z,2.70
2023-02-04T11:37:49.289Z,2.03
2023-02-04T11:40:32.289Z,2.20
2023-02-04T11:43:00.814Z,2.40
2023-02-04T11:45:35.117Z,3.00
2023-02-04T11:48:18.531Z,2.47
2023-02-04T11:50:57.849Z,2.20
2023-02-04T11:53:34.726Z,2.40
2023-02-04T11:56:01.755Z,2.10
2023-02-04T11:58:31.577Z,2.80
2023-02-04T12:00:59.581Z,2.07
2023-02-04T12:03:34.451Z,2.40
2023-02-04T12:06:01.779Z,2.70
2023-02-04T12:08:36.888Z,2.33
2023-02-04T12:11:32.985Z,1.80
2023-02-04T12:14:09.935Z,1.73
2023-02-04T12:16:47.394Z,1.80
2023-02-04T12:19:15.195Z,1.97
2023-02-04T12:21:42.512Z,1.90
2023-02-04T12:24:10.000Z,2.53
2023-02-04T12:26:36.977Z,2.67
2023-02-04T12:29:05.678Z,2.50
2023-02-04T12:31:33.899Z,3.63
2023-02-04T12:34:02.033Z,2.33
2023-02-04T12:36:29.882Z,2.83
2023-02-04T12:38:59.116Z,2.60
2023-02-04T12:41:26.726Z,2.00
2023-02-04T12:43:55.904Z,1.90
2023-02-04T12:46:23.748Z,2.37
2023-02-04T12:48:51.199Z,1.60
2023-02-04T12:51:18.080Z,2.03
2023-02-04T12:53:44.982Z,1.77
2023-02-04T12:56:12.016Z,2.20
2023-02-04T12:58:38.942Z,1.80
2023-02-04T13:01:06.022Z,2.00
2023-02-04T13:03:33.375Z,1.90
2023-02-04T13:06:00.284Z,1.90
2023-02-04T13:08:27.219Z,2.20
2023-02-04T13:10:54.259Z,2.43
2023-02-04T13:13:22.884Z,2.20
2023-02-04T13:15:51.108Z,1.60
2023-02-04T13:18:18.730Z,1.93
2023-02-04T13:20:46.464Z,1.70
2023-02-04T13:23:14.259Z,1.87
2023-02-04T13:25:41.175Z,1.70
2023-02-04T13:28:08.121Z,1.33
2023-02-04T13:30:35.195Z,1.43
2023-02-04T13:33:02.391Z,1.70
2023-02-04T13:35:29.290Z,1.40
2023-02-04T13:37:56.600Z,3.00
2023-02-04T13:40:23.664Z,1.70
2023-02-04T13:42:50.678Z,2.43
2023-02-04T13:45:19.126Z,1.93
2023-02-04T13:47:48.238Z,3.50
2023-02-04T13:50:16.996Z,2.70
2023-02-04T13:52:44.137Z,3.10
2023-02-04T13:55:11.099Z,2.90
2023-02-04T13:57:38.154Z,2.30
2023-02-04T14:00:08.907Z,3.63
2023-02-04T14:02:35.871Z,1.70
2023-02-04T14:05:02.857Z,1.53
2023-02-04T14:07:30.653Z,1.50
2023-02-04T14:09:57.637Z,1.40
2023-02-04T14:12:24.646Z,2.00
2023-02-04T14:14:51.564Z,1.70
2023-02-04T14:17:18.516Z,1.40
2023-02-04T14:19:45.459Z,1.70
2023-02-04T14:22:13.353Z,1.43
2023-02-04T14:24:42.675Z,2.00
2023-02-04T14:27:11.072Z,2.07
2023-02-04T14:29:38.046Z,1.63
2023-02-04T14:32:06.141Z,1.30
2023-02-04T14:34:35.846Z,1.97
2023-02-04T14:37:02.769Z,1.50
2023-02-04T14:39:29.676Z,1.10
2023-02-04T14:41:56.556Z,1.60
2023-02-04T14:44:23.451Z,1.37
2023-02-04T14:46:50.536Z,1.80
2023-02-04T14:49:17.753Z,1.70
2023-02-04T14:51:44.882Z,1.60
2023-02-04T14:54:11.870Z,1.67
2023-02-04T14:56:39.102Z,2.13
2023-02-04T14:59:06.900Z,2.13
2023-02-04T15:01:34.216Z,2.17
2023-02-04T15:04:01.615Z,1.60
2023-02-04T15:06:28.689Z,18.43
2023-02-04T15:08:55.772Z,3.30
2023-02-04T15:11:22.668Z,3.27
2023-02-04T15:13:49.670Z,1.67
2023-02-04T15:16:16.680Z,2.50
2023-02-04T15:18:44.018Z,2.50
2023-02-04T15:21:11.725Z,1.70
2023-02-04T15:23:38.728Z,2.57
2023-02-04T15:26:05.694Z,1.70
2023-02-04T15:28:32.630Z,1.50
2023-02-04T15:30:59.621Z,1.97
2023-02-04T15:33:26.609Z,1.77
2023-02-04T15:35:53.524Z,2.17
2023-02-04T15:38:20.437Z,1.70
2023-02-04T15:40:48.028Z,1.60
2023-02-04T15:43:14.926Z,1.47
2023-02-04T15:45:44.091Z,1.87
2023-02-04T15:48:11.546Z,1.70
2023-02-04T15:50:39.715Z,1.90
2023-02-04T15:53:06.951Z,2.00
2023-02-04T15:55:35.056Z,2.30
2023-02-04T15:58:02.046Z,1.60
2023-02-04T16:00:29.042Z,1.97
2023-02-04T16:02:56.010Z,2.13
2023-02-04T16:05:23.456Z,2.07
2023-02-04T16:07:50.496Z,1.90
2023-02-04T16:10:18.746Z,1.80
2023-02-04T16:12:47.737Z,2.60
2023-02-04T16:15:15.375Z,2.47
2023-02-04T16:17:42.366Z,1.73
2023-02-04T16:20:11.646Z,5.27
2023-02-04T16:22:38.588Z,4.93
2023-02-04T16:25:07.126Z,9.80
2023-02-04T16:27:34.670Z,3.30
2023-02-04T16:30:03.291Z,2.83
2023-02-04T16:32:30.233Z,3.17
2023-02-04T16:34:57.315Z,2.90
2023-02-04T16:37:24.346Z,3.03
2023-02-04T16:39:52.267Z,27.17
2023-02-04T16:42:20.146Z,12.90
2023-02-04T16:44:47.127Z,3.43
2023-02-04T16:47:14.082Z,3.97
2023-02-04T16:49:41.126Z,2.60
2023-02-04T16:52:08.134Z,2.17
2023-02-04T16:54:35.495Z,2.70
2023-02-04T16:57:04.064Z,2.70
2023-02-04T16:59:32.564Z,2.43
2023-02-04T17:02:00.936Z,3.00
2023-02-04T17:04:29.061Z,2.83
2023-02-04T17:06:56.691Z,2.93
2023-02-04T17:09:23.732Z,3.43
2023-02-04T17:11:51.170Z,2.60
2023-02-04T17:14:18.898Z,3.17
2023-02-04T17:16:48.203Z,2.47
2023-02-04T17:19:21.389Z,3.30
2023-02-04T17:21:49.152Z,2.70
2023-02-04T17:24:16.327Z,2.90
2023-02-04T17:26:43.258Z,3.10
2023-02-04T17:29:21.993Z,2.50
2023-02-04T17:31:49.041Z,3.60
2023-02-04T17:34:15.997Z,2.97
2023-02-04T17:36:42.944Z,4.60
2023-02-04T17:39:09.904Z,3.20
2023-02-04T17:41:36.896Z,5.27
2023-02-04T17:44:03.978Z,3.60
2023-02-04T17:46:31.620Z,5.27
2023-02-04T17:48:59.062Z,4.00
2023-02-04T17:51:26.260Z,3.13
2023-02-04T17:53:53.167Z,3.63
2023-02-04T17:56:21.569Z,2.97
2023-02-04T17:58:49.653Z,2.83
2023-02-04T18:01:19.341Z,2.40
2023-02-04T18:03:46.829Z,2.50
2023-02-04T18:06:21.140Z,2.60
2023-02-04T18:08:49.973Z,3.13
2023-02-04T18:11:27.820Z,4.40
2023-02-04T18:14:01.712Z,4.20
2023-02-04T18:16:32.177Z,7.97
2023-02-04T18:19:30.447Z,3.43
2023-02-04T18:21:59.544Z,6.80
2023-02-04T18:24:34.316Z,9.33
2023-02-04T18:27:13.281Z,12.57
2023-02-04T18:29:43.011Z,9.07
2023-02-04T18:32:31.144Z,24.70
2023-02-04T18:34:59.577Z,32.13
2023-02-04T18:37:33.846Z,24.00
2023-02-04T18:40:11.872Z,11.43
2023-02-04T18:42:45.775Z,7.60
2023-02-04T18:45:33.730Z,19.67
2023-02-04T18:48:20.879Z,9.60
2023-02-04T18:50:54.369Z,15.70
2023-02-04T18:53:26.588Z,16.97
2023-02-04T18:55:59.304Z,9.33
2023-02-04T18:58:39.736Z,6.97
2023-02-04T19:01:13.056Z,9.63
2023-02-04T19:04:20.366Z,5.70
2023-02-04T19:06:53.194Z,5.37
2023-02-04T19:09:32.837Z,9.57
2023-02-04T19:12:14.736Z,10.07
2023-02-04T19:14:44.474Z,5.60
2023-02-04T19:17:14.463Z,4.37
2023-02-04T19:20:08.924Z,3.50
2023-02-04T19:22:46.356Z,3.63
2023-02-04T19:25:50.429Z,2.93
2023-02-04T19:28:36.375Z,5.30
2023-02-04T19:31:06.744Z,4.87
2023-02-04T19:33:42.936Z,5.17
2023-02-04T19:36:36.186Z,5.20
2023-02-04T19:39:23.842Z,4.00
2023-02-04T19:41:52.783Z,3.03
2023-02-04T19:44:46.516Z,3.80
2023-02-04T19:47:44.148Z,3.40
2023-02-04T19:50:34.592Z,4.50
2023-02-04T19:53:19.782Z,4.70
2023-02-04T19:55:51.228Z,4.57
2023-02-04T19:58:22.299Z,5.10
2023-02-04T20:00:56.884Z,5.17
2023-02-04T20:03:39.161Z,5.50
2023-02-04T20:06:34.588Z,4.40
2023-02-04T20:09:16.111Z,4.50
2023-02-04T20:11:57.211Z,4.47
2023-02-04T20:14:37.799Z,4.93
2023-02-04T20:17:33.514Z,4.77
2023-02-04T20:20:13.521Z,3.87
2023-02-04T20:23:29.399Z,4.17
2023-02-04T20:25:57.550Z,3.70
2023-02-04T20:28:53.819Z,3.70
2023-02-04T20:31:28.962Z,3.00
2023-02-04T20:33:59.726Z,2.80
2023-02-04T20:36:27.332Z,3.20
2023-02-04T20:39:12.539Z,3.70
2023-02-04T20:41:40.603Z,3.70
2023-02-04T20:44:23.571Z,3.43
2023-02-04T20:46:50.907Z,4.10
2023-02-04T20:49:26.338Z,4.30
2023-02-04T20:52:47.730Z,5.23
2023-02-04T20:55:30.500Z,4.57
2023-02-04T20:58:16.564Z,2.97
2023-02-04T21:00:48.141Z,3.33
2023-02-04T21:03:34.341Z,3.10
2023-02-04T21:06:03.967Z,3.17
2023-02-04T21:08:45.179Z,3.43
2023-02-04T21:11:12.341Z,3.97
2023-02-04T21:13:40.985Z,3.17
2023-02-04T21:16:09.061Z,3.47
2023-02-04T21:18:36.688Z,3.90
2023-02-04T21:21:10.412Z,3.27
2023-02-04T21:23:37.464Z,3.40
2023-02-04T21:26:05.706Z,2.87
2023-02-04T21:28:33.296Z,2.70
2023-02-04T21:31:00.753Z,3.00
2023-02-04T21:33:27.927Z,2.80
2023-02-04T21:35:54.848Z,3.40
2023-02-04T21:38:21.845Z,3.20
2023-02-04T21:40:48.937Z,3.37
2023-02-04T21:43:16.062Z,3.60
2023-02-04T21:45:43.028Z,4.80
2023-02-04T21:48:10.092Z,3.70
2023-02-04T21:50:40.990Z,4.50
2023-02-04T21:53:09.345Z,4.47
2023-02-04T21:55:37.459Z,4.40
2023-02-04T21:58:06.031Z,4.30
2023-02-04T22:00:33.692Z,4.57
2023-02-04T22:03:01.109Z,3.60
2023-02-04T22:05:28.069Z,3.80
2023-02-04T22:07:55.129Z,4.50
2023-02-04T22:10:25.706Z,3.80
2023-02-04T22:12:53.066Z,4.37
2023-02-04T22:15:24.551Z,3.80
2023-02-04T22:17:53.917Z,4.23
2023-02-04T22:20:25.750Z,4.60
2023-02-04T22:22:53.797Z,4.60
2023-02-04T22:25:21.939Z,4.43
2023-02-04T22:27:49.470Z,3.87
2023-02-04T22:30:18.792Z,4.90
2023-02-04T22:32:45.850Z,3.93
2023-02-04T22:35:13.886Z,4.87
2023-02-04T22:37:42.270Z,4.37
2023-02-04T22:40:12.022Z,4.20
2023-02-04T22:42:39.135Z,4.93
2023-02-04T22:45:08.224Z,4.30
2023-02-04T22:47:35.289Z,4.47
2023-02-04T22:50:02.276Z,4.17
2023-02-04T22:52:29.173Z,5.03
2023-02-04T22:54:56.155Z,4.30
2023-02-04T22:57:23.161Z,4.13
2023-02-04T22:59:50.095Z,4.63
2023-02-04T23:02:17.131Z,4.40
2023-02-04T23:04:44.364Z,4.40
2023-02-04T23:07:12.907Z,3.80
2023-02-04T23:09:40.498Z,3.60
2023-02-04T23:12:14.056Z,3.80
2023-02-04T23:14:48.050Z,4.40
2023-02-04T23:17:17.085Z,4.43
2023-02-04T23:19:44.585Z,4.30
2023-02-04T23:22:13.026Z,4.07
2023-02-04T23:24:41.393Z,3.60
2023-02-04T23:27:11.116Z,3.73
2023-02-04T23:29:39.901Z,3.50
2023-02-04T23:32:07.914Z,3.50
2023-02-04T23:34:35.451Z,3.50
2023-02-04T23:37:02.557Z,3.67
2023-02-04T23:39:29.606Z,3.47
2023-02-04T23:41:56.977Z,3.20
2023-02-04T23:44:24.011Z,3.23
2023-02-04T23:46:50.970Z,3.83
2023-02-04T23:49:17.878Z,4.20
2023-02-04T23:51:44.980Z,3.50
2023-02-04T23:54:12.479Z,3.73
2023-02-04T23:56:39.498Z,2.97
2023-02-04T23:59:08.095Z,3.80
